Time;durP1;ratioP1;P1;durP2;ratioP2;P2;SDS_P1;SDS_P2;PMS_P1;PMS_P2;Temp;Humidity;BMP_temperature;BMP_pressure;BME280_temperature;BME280_humidity;BME280_pressure;Samples;Min_cycle;Max_cycle;Signal;HPM_P1;HPM_P2
2021/11/04 00:02:55;;;;;;;19.77;8.73;;;;;;;9.86;72.55;99034.83;2123956;82;21008;-79
2021/11/04 00:05:56;;;;;;;24.60;9.98;;;;;;;9.82;72.77;99039.35;2127148;82;20983;-79
2021/11/04 00:08:58;;;;;;;17.17;9.45;;;;;;;9.75;73.47;99035.32;2126806;82;21026;-79
2021/11/04 00:12:00;;;;;;;20.08;9.43;;;;;;;9.66;73.49;99033.80;2129000;82;21686;-80
2021/11/04 00:15:02;;;;;;;20.80;8.68;;;;;;;9.59;73.98;99035.55;2130249;82;21081;-80
2021/11/04 00:18:04;;;;;;;18.02;8.65;;;;;;;9.53;74.04;99027.84;2131202;82;20986;-79
2021/11/04 00:21:06;;;;;;;19.27;8.88;;;;;;;9.48;74.57;99026.77;2127243;82;21040;-78
2021/11/04 00:24:08;;;;;;;18.80;9.65;;;;;;;9.41;74.74;99026.70;2126351;82;21558;-78
2021/11/04 00:27:10;;;;;;;17.98;10.18;;;;;;;9.35;74.79;99021.64;2128339;82;21022;-78
2021/11/04 00:30:12;;;;;;;15.32;9.90;;;;;;;9.29;75.21;99009.15;2122836;82;20987;-79
2021/11/04 00:33:14;;;;;;;19.25;10.10;;;;;;;9.24;75.37;99015.50;2129005;82;21028;-78
2021/11/04 00:36:15;;;;;;;18.95;9.30;;;;;;;9.16;75.71;99007.15;2126692;82;21512;-79
2021/11/04 00:39:17;;;;;;;20.10;9.53;;;;;;;9.12;75.94;99019.13;2132182;82;21053;-79
2021/11/04 00:42:19;;;;;;;16.82;9.25;;;;;;;9.06;76.50;99004.46;2123668;82;20973;-79
2021/11/04 00:45:21;;;;;;;23.60;11.03;;;;;;;9.03;76.68;98999.03;2130095;82;21049;-79
2021/11/04 00:48:23;;;;;;;23.57;11.25;;;;;;;9.01;76.81;98997.09;2129965;82;21073;-79
2021/11/04 00:51:25;;;;;;;22.40;10.32;;;;;;;8.98;77.31;98995.63;2126303;82;21616;-79
2021/11/04 00:54:26;;;;;;;19.25;9.40;;;;;;;8.95;77.38;98999.97;2128119;82;21103;-78
2021/11/04 00:57:28;;;;;;;17.35;10.05;;;;;;;8.92;77.39;98995.02;2127598;82;21036;-79
2021/11/04 01:00:29;;;;;;;18.73;10.20;;;;;;;8.92;77.81;98993.70;2126923;82;20962;-79
2021/11/04 01:03:32;;;;;;;20.45;10.08;;;;;;;8.92;78.02;98984.95;2127443;82;21087;-79
2021/11/04 01:06:34;;;;;;;17.87;9.95;;;;;;;8.89;78.29;98976.88;2122929;82;21033;-79
2021/11/04 01:09:35;;;;;;;19.82;9.93;;;;;;;8.89;79.02;98959.67;2126915;82;21024;-79
2021/11/04 01:12:37;;;;;;;21.45;9.63;;;;;;;8.86;78.79;98952.11;2127003;82;21091;-79
2021/11/04 01:15:40;;;;;;;16.87;8.23;;;;;;;8.87;78.78;98944.98;2131680;82;21516;-79
2021/11/04 01:18:42;;;;;;;20.35;8.95;;;;;;;8.87;79.11;98938.38;2129702;82;20992;-78
2021/11/04 01:21:43;;;;;;;19.50;9.38;;;;;;;8.88;79.55;98936.06;2128931;82;21068;-78
2021/11/04 01:24:45;;;;;;;15.75;8.55;;;;;;;8.89;79.34;98930.58;2127155;82;21047;-78
2021/11/04 01:27:46;;;;;;;17.02;8.30;;;;;;;8.88;79.77;98930.27;2126658;82;21032;-80
2021/11/04 01:30:48;;;;;;;14.80;7.60;;;;;;;8.85;79.80;98922.70;2128760;82;21556;-79
2021/11/04 01:33:49;;;;;;;20.32;9.80;;;;;;;8.84;80.17;98915.78;2123905;82;20954;-78
2021/11/04 01:36:51;;;;;;;15.68;7.80;;;;;;;8.85;79.86;98920.06;2126284;82;21048;-78
2021/11/04 01:39:53;;;;;;;17.30;9.18;;;;;;;8.85;80.09;98925.35;2123261;82;21473;-79
2021/11/04 01:42:54;;;;;;;15.85;8.80;;;;;;;8.85;80.34;98922.70;2129929;82;21016;-79
2021/11/04 01:45:56;;;;;;;19.25;9.00;;;;;;;8.84;80.27;98923.72;2128734;82;21028;-78
2021/11/04 01:49:00;;;;;;;17.32;9.50;;;;;;;8.84;80.23;98901.23;2126295;82;21083;-79
2021/11/04 01:52:01;;;;;;;18.20;9.50;;;;;;;8.85;80.04;98900.22;2124237;82;21043;-79
2021/11/04 01:55:03;;;;;;;15.95;8.58;;;;;;;8.84;80.40;98893.78;2101574;82;21016;-79
2021/11/04 01:58:05;;;;;;;19.17;8.85;;;;;;;8.84;80.23;98896.42;2113068;83;21055;-78
2021/11/04 02:01:07;;;;;;;21.05;9.35;;;;;;;8.84;80.69;98884.52;2114524;82;20974;-79
2021/11/04 02:04:20;;;;;;;15.98;8.48;;;;;;;8.80;80.74;98884.59;2099503;82;21040;-79
2021/11/04 02:07:56;;;;;;;16.37;8.70;;;;;;;8.78;80.79;98876.83;2113533;83;20990;-79
2021/11/04 02:11:17;;;;;;;17.87;9.28;;;;;;;8.78;81.11;98878.66;2108793;83;21036;-79
2021/11/04 02:14:24;;;;;;;23.32;9.40;;;;;;;8.74;81.29;98883.50;2107527;83;21071;-79
2021/11/04 02:17:28;;;;;;;16.62;8.90;;;;;;;8.73;81.25;98875.27;2116891;82;20978;-78
2021/11/04 02:20:47;;;;;;;18.65;8.48;;;;;;;8.70;81.75;98870.31;2108652;83;21012;-78
2021/11/04 02:24:13;;;;;;;16.77;8.90;;;;;;;8.68;81.49;98859.13;2109083;83;21017;-78
2021/11/04 02:27:16;;;;;;;19.95;9.65;;;;;;;8.65;81.64;98858.17;2108712;82;21028;-78
2021/11/04 02:30:20;;;;;;;14.35;8.03;;;;;;;8.64;82.31;98855.20;2110524;83;20994;-79
2021/11/04 02:33:23;;;;;;;17.12;9.65;;;;;;;8.63;82.22;98850.92;2103830;83;21052;-80
2021/11/04 02:36:25;;;;;;;14.28;9.08;;;;;;;8.60;82.32;98836.25;2111882;82;21000;-78
2021/11/04 02:39:29;;;;;;;13.75;7.58;;;;;;;8.62;82.53;98840.04;2109996;83;21457;-79
2021/11/04 02:42:31;;;;;;;15.38;8.25;;;;;;;8.64;83.01;98831.39;2106319;83;21102;-79
2021/11/04 02:45:32;;;;;;;16.02;8.15;;;;;;;8.66;82.58;98837.33;2108792;83;20954;-79
2021/11/04 02:48:34;;;;;;;15.70;8.28;;;;;;;8.65;82.74;98841.80;2108312;82;21032;-78
2021/11/04 02:51:39;;;;;;;15.00;8.10;;;;;;;8.66;82.71;98835.50;2107015;82;21100;-79
2021/11/04 02:54:56;;;;;;;11.73;7.83;;;;;;;8.69;82.69;98842.25;2086849;83;21029;-78
2021/11/04 02:57:58;;;;;;;15.58;7.95;;;;;;;8.72;82.74;98829.97;2084897;83;21028;-79
2021/11/04 03:01:03;;;;;;;15.50;7.95;;;;;;;8.73;82.86;98817.08;2091196;84;21065;-78
2021/11/04 03:04:04;;;;;;;11.68;6.90;;;;;;;8.72;82.95;98818.06;2089769;83;21052;-78
2021/11/04 03:07:06;;;;;;;12.23;7.35;;;;;;;8.73;83.08;98810.47;2088214;83;21059;-79
2021/11/04 03:10:09;;;;;;;13.90;7.42;;;;;;;8.71;83.39;98802.71;2098763;83;21041;-80
2021/11/04 03:13:11;;;;;;;15.20;7.42;;;;;;;8.73;83.54;98795.92;2092736;84;20978;-79
2021/11/04 03:16:14;;;;;;;12.73;6.58;;;;;;;8.77;83.40;98790.56;2090922;84;21025;-79
2021/11/04 03:19:18;;;;;;;13.00;6.50;;;;;;;8.80;83.67;98774.31;2092090;83;21044;-79
2021/11/04 03:22:20;;;;;;;13.50;6.10;;;;;;;8.83;83.77;98769.16;2083729;83;20985;-78
2021/11/04 03:25:22;;;;;;;11.88;6.00;;;;;;;8.86;84.03;98768.27;2093122;84;21010;-80
2021/11/04 03:28:26;;;;;;;11.90;6.20;;;;;;;8.92;83.91;98774.63;2086154;83;21018;-79
2021/11/04 03:31:28;;;;;;;12.80;6.22;;;;;;;8.95;83.77;98766.31;2086496;84;21484;-79
2021/11/04 03:34:31;;;;;;;10.13;6.78;;;;;;;8.97;83.57;98767.77;2090157;84;21044;-79
2021/11/04 03:37:33;;;;;;;15.65;7.28;;;;;;;8.98;83.76;98768.11;2093670;83;21488;-79
2021/11/04 03:40:36;;;;;;;12.23;6.30;;;;;;;8.97;83.58;98773.56;2092745;84;21020;-78
2021/11/04 03:43:38;;;;;;;11.03;6.33;;;;;;;8.95;83.43;98772.45;2084601;83;21036;-78
2021/11/04 03:46:44;;;;;;;9.55;6.35;;;;;;;8.95;83.50;98772.45;2088570;84;20997;-79
2021/11/04 03:49:49;;;;;;;9.58;6.08;;;;;;;8.95;83.61;98772.93;2069255;84;21021;-78
2021/11/04 03:52:51;;;;;;;10.95;6.55;;;;;;;8.97;83.51;98769.09;2098097;84;21072;-79
2021/11/04 03:55:53;;;;;;;14.28;8.13;;;;;;;8.97;83.58;98761.16;2096392;83;21072;-79
2021/11/04 03:58:55;;;;;;;9.88;6.80;;;;;;;8.96;83.40;98749.45;2100038;83;21064;-79
2021/11/04 04:01:58;;;;;;;12.53;6.72;;;;;;;8.97;83.35;98755.05;2100119;83;21564;-78
2021/11/04 04:04:59;;;;;;;11.22;6.62;;;;;;;8.97;83.40;98749.76;2098466;83;21068;-79
2021/11/04 04:08:01;;;;;;;13.08;7.70;;;;;;;8.98;83.35;98739.00;2101605;83;21012;-79
2021/11/04 04:11:05;;;;;;;13.00;6.95;;;;;;;8.98;83.41;98731.06;2100189;83;21135;-78
2021/11/04 04:14:06;;;;;;;14.93;7.37;;;;;;;8.98;83.30;98719.16;2097514;83;21025;-78
2021/11/04 04:17:08;;;;;;;14.73;8.13;;;;;;;8.96;83.30;98729.61;2101424;83;20950;-79
2021/11/04 04:20:10;;;;;;;13.22;7.10;;;;;;;8.96;83.32;98716.39;2097102;83;21042;-78
2021/11/04 04:23:11;;;;;;;10.28;6.58;;;;;;;8.94;83.35;98721.85;2097579;83;20981;-79
2021/11/04 04:26:13;;;;;;;14.47;8.25;;;;;;;8.93;83.44;98718.09;2099310;83;21025;-79
2021/11/04 04:29:15;;;;;;;10.23;7.28;;;;;;;8.90;83.80;98716.64;2097817;83;21006;-78
2021/11/04 04:32:16;;;;;;;12.80;7.70;;;;;;;8.89;83.76;98707.56;2101511;83;21013;-78
2021/11/04 04:35:18;;;;;;;13.05;6.87;;;;;;;8.90;83.78;98698.64;2102264;83;21583;-79
2021/11/04 04:38:20;;;;;;;13.20;7.95;;;;;;;8.92;84.06;98687.34;2100952;84;21299;-79
2021/11/04 04:41:22;;;;;;;13.53;8.30;;;;;;;8.93;83.80;98687.67;2098232;83;20989;-79
2021/11/04 04:44:23;;;;;;;11.60;7.53;;;;;;;8.93;84.12;98673.94;2096865;83;21085;-79
2021/11/04 04:47:25;;;;;;;13.03;8.55;;;;;;;8.94;84.14;98666.81;2102523;83;20989;-80
2021/11/04 04:50:26;;;;;;;18.15;9.50;;;;;;;8.94;84.00;98657.05;2100416;83;21390;-78
2021/11/04 04:53:28;;;;;;;15.35;9.08;;;;;;;8.92;83.87;98655.08;2113200;82;21033;-78
2021/11/04 04:56:30;;;;;;;17.80;8.68;;;;;;;8.94;83.79;98639.03;2128109;82;21039;-80
2021/11/04 04:59:31;;;;;;;16.62;10.25;;;;;;;8.95;83.76;98636.21;2127289;82;21020;-79
2021/11/04 05:02:33;;;;;;;17.85;10.23;;;;;;;8.94;83.76;98627.94;2123608;82;21507;-78
2021/11/04 05:05:34;;;;;;;15.30;10.38;;;;;;;8.94;83.69;98617.36;2125737;82;20969;-79
2021/11/04 05:08:36;;;;;;;16.62;11.00;;;;;;;8.97;83.80;98610.87;2127932;82;21016;-79
2021/11/04 05:11:37;;;;;;;18.80;10.98;;;;;;;8.96;83.73;98599.47;2124061;82;21449;-79
2021/11/04 05:14:39;;;;;;;17.02;10.15;;;;;;;8.98;83.66;98601.91;2127320;82;20969;-78
2021/11/04 05:17:40;;;;;;;18.50;10.55;;;;;;;9.00;83.63;98594.61;2124807;82;20965;-78
2021/11/04 05:20:42;;;;;;;20.45;11.93;;;;;;;9.01;83.57;98595.42;2123237;82;21076;-79
2021/11/04 05:23:44;;;;;;;18.05;11.03;;;;;;;9.02;83.72;98579.36;2130420;82;21001;-77
2021/11/04 05:26:47;;;;;;;17.57;11.43;;;;;;;9.03;83.72;98582.82;2132756;82;21090;-79
2021/11/04 05:29:49;;;;;;;20.75;11.05;;;;;;;9.03;83.64;98572.23;2126503;82;21061;-79
2021/11/04 05:32:51;;;;;;;16.60;11.57;;;;;;;9.05;83.85;98570.23;2130402;82;21051;-79
2021/11/04 05:35:52;;;;;;;20.77;10.88;;;;;;;9.05;83.72;98563.61;2128250;82;21024;-78
2021/11/04 05:38:55;;;;;;;15.75;10.35;;;;;;;9.04;84.01;98556.19;2127254;82;20965;-79
2021/11/04 05:41:56;;;;;;;18.75;10.45;;;;;;;9.05;83.80;98560.97;2125572;82;21008;-79
2021/11/04 05:44:59;;;;;;;17.27;9.85;;;;;;;9.05;83.96;98562.28;2126243;82;21559;-77
2021/11/04 05:48:00;;;;;;;14.80;9.68;;;;;;;9.07;84.21;98551.02;2126934;82;21072;-79
2021/11/04 05:51:02;;;;;;;17.95;10.23;;;;;;;9.07;83.97;98562.92;2128745;82;20965;-79
2021/11/04 05:54:04;;;;;;;13.13;8.83;;;;;;;9.06;83.93;98552.81;2102790;82;21522;-78
2021/11/04 05:57:05;;;;;;;14.00;8.90;;;;;;;9.07;83.97;98547.05;2090750;84;21026;-80
2021/11/04 06:00:07;;;;;;;13.18;8.40;;;;;;;9.08;83.89;98543.38;2087518;84;21072;-77
2021/11/04 06:03:12;;;;;;;15.40;9.40;;;;;;;9.08;83.91;98542.05;2078905;84;21125;-77
2021/11/04 06:06:14;;;;;;;15.85;8.95;;;;;;;9.06;83.87;98542.75;2085576;84;21594;-83
2021/11/04 06:09:15;;;;;;;14.50;8.30;;;;;;;9.05;83.93;98547.23;2090792;84;21011;-78
2021/11/04 06:12:16;;;;;;;17.27;8.83;;;;;;;9.02;84.12;98530.42;2085897;84;20999;-75
2021/11/04 06:15:18;;;;;;;14.70;8.75;;;;;;;9.01;83.96;98531.92;2082506;84;21009;-77
2021/11/04 06:18:20;;;;;;;15.90;9.18;;;;;;;9.00;83.94;98528.98;2090129;84;21025;-75
2021/11/04 06:21:21;;;;;;;16.15;9.53;;;;;;;8.98;84.03;98524.71;2081578;84;20992;-75
2021/11/04 06:24:23;;;;;;;16.07;9.35;;;;;;;8.96;84.07;98517.98;2089135;84;21050;-72
2021/11/04 06:27:24;;;;;;;14.03;9.08;;;;;;;8.96;84.21;98523.27;2084029;84;21055;-75
2021/11/04 06:30:26;;;;;;;13.93;8.48;;;;;;;8.94;84.20;98518.67;2081905;84;21064;-75
2021/11/04 06:33:27;;;;;;;12.55;8.78;;;;;;;8.93;84.35;98531.09;2083380;84;21031;-74
2021/11/04 06:36:29;;;;;;;15.95;9.43;;;;;;;8.92;84.50;98541.84;2090796;84;20955;-73
2021/11/04 06:39:30;;;;;;;14.10;9.00;;;;;;;8.91;84.29;98541.55;2085506;84;21003;-74
2021/11/04 06:42:32;;;;;;;13.60;9.08;;;;;;;8.91;84.56;98542.36;2080356;84;21130;-74
2021/11/04 06:45:35;;;;;;;13.05;8.68;;;;;;;8.91;84.45;98546.33;2083964;84;21049;-76
2021/11/04 06:48:44;;;;;;;11.30;8.48;;;;;;;8.92;84.54;98542.66;2084674;84;21743;-73
2021/11/04 06:51:49;;;;;;;12.18;7.47;;;;;;;8.95;84.40;98533.04;2048085;84;38912;-75
2021/11/04 06:54:51;;;;;;;10.32;7.42;;;;;;;9.06;84.32;98530.84;2088389;84;21515;-75
2021/11/04 06:57:59;;;;;;;11.18;6.80;;;;;;;9.10;84.38;98518.87;2094311;84;21446;-76
2021/11/04 07:01:05;;;;;;;11.48;7.75;;;;;;;9.13;84.26;98517.15;2087536;83;21533;-74
2021/11/04 07:04:11;;;;;;;11.40;7.40;;;;;;;9.14;84.16;98522.23;2092220;83;21029;-75
2021/11/04 07:07:13;;;;;;;14.15;7.12;;;;;;;9.16;84.13;98518.89;2090051;84;21072;-74
2021/11/04 07:10:19;;;;;;;12.37;8.03;;;;;;;9.18;84.20;98499.67;2062642;85;21042;-75
2021/11/04 07:13:21;;;;;;;12.03;7.12;;;;;;;9.19;84.18;98502.61;2094482;83;21008;-74
2021/11/04 07:16:24;;;;;;;11.90;7.53;;;;;;;9.22;84.20;98500.08;2092020;84;21002;-73
2021/11/04 07:19:27;;;;;;;11.10;7.62;;;;;;;9.22;84.12;98494.79;2089598;84;21487;-75
2021/11/04 07:22:34;;;;;;;10.63;7.28;;;;;;;9.25;84.07;98493.58;2091384;84;21042;-73
2021/11/04 07:25:38;;;;;;;11.90;8.05;;;;;;;9.27;84.17;98498.18;2091807;84;20998;-74
2021/11/04 07:28:43;;;;;;;12.10;6.25;;;;;;;9.26;84.27;98489.91;2085792;83;20993;-75
2021/11/04 07:31:47;;;;;;;15.98;7.90;;;;;;;9.27;84.27;98485.76;2087369;84;21035;-73
2021/11/04 07:34:50;;;;;;;8.45;6.28;;;;;;;9.26;84.22;98472.20;2087460;83;21036;-74
2021/11/04 07:37:52;;;;;;;11.05;7.60;;;;;;;9.26;84.34;98478.81;2087820;84;21006;-73
2021/11/04 07:40:53;;;;;;;10.80;7.22;;;;;;;9.24;84.19;98484.83;2085773;84;21056;-75
2021/11/04 07:43:57;;;;;;;13.03;7.28;;;;;;;9.24;84.42;98485.34;2095841;84;21036;-75
2021/11/04 07:46:58;;;;;;;12.53;7.12;;;;;;;9.22;84.53;98468.84;2087200;84;21020;-75
2021/11/04 07:50:04;;;;;;;11.48;7.65;;;;;;;9.19;84.66;98463.44;2092141;84;20954;-73
2021/11/04 07:53:05;;;;;;;11.75;7.10;;;;;;;9.14;84.52;98446.00;2091369;82;21025;-75
2021/11/04 07:56:09;;;;;;;10.48;7.40;;;;;;;9.14;84.76;98446.00;2085248;84;20998;-74
2021/11/04 07:59:10;;;;;;;11.12;8.28;;;;;;;9.13;84.75;98440.41;2093924;83;21521;-73
2021/11/04 08:02:12;;;;;;;12.37;7.80;;;;;;;9.08;85.01;98429.09;2087211;84;21029;-74
2021/11/04 08:05:17;;;;;;;15.65;7.42;;;;;;;9.06;85.12;98425.01;2089229;83;20992;-74
2021/11/04 08:08:19;;;;;;;13.43;8.38;;;;;;;9.03;85.40;98420.92;2092908;84;21034;-75
2021/11/04 08:11:20;;;;;;;13.03;7.95;;;;;;;9.03;85.60;98405.56;2086967;84;20990;-75
2021/11/04 08:14:22;;;;;;;12.33;7.95;;;;;;;9.01;85.55;98403.14;2092287;83;21020;-74
2021/11/04 08:17:23;;;;;;;17.17;8.50;;;;;;;9.01;85.68;98404.94;2092126;83;21509;-75
2021/11/04 08:20:25;;;;;;;11.30;7.87;;;;;;;9.01;85.99;98395.20;2093327;83;21581;-75
2021/11/04 08:23:26;;;;;;;11.70;8.15;;;;;;;9.02;85.91;98392.04;2080439;84;20998;-74
2021/11/04 08:26:30;;;;;;;12.73;7.50;;;;;;;9.03;86.15;98385.72;2091104;84;20978;-74
2021/11/04 08:29:32;;;;;;;11.83;7.85;;;;;;;9.04;86.09;98381.57;2086264;83;21025;-75
2021/11/04 08:32:33;;;;;;;10.48;7.53;;;;;;;9.07;86.08;98357.88;2091598;83;20997;-73
2021/11/04 08:35:34;;;;;;;10.75;7.83;;;;;;;9.12;86.27;98356.25;2090618;83;21056;-74
2021/11/04 08:38:36;;;;;;;12.40;7.55;;;;;;;9.21;86.32;98352.91;2088109;83;21497;-72
2021/11/04 08:41:38;;;;;;;14.33;8.60;;;;;;;9.27;86.22;98371.14;2080695;83;21012;-74
2021/11/04 08:44:39;;;;;;;8.55;7.05;;;;;;;9.32;86.10;98361.58;2092418;84;21031;-74
2021/11/04 08:47:41;;;;;;;11.85;7.85;;;;;;;9.37;86.23;98355.67;2085662;83;21053;-75
2021/11/04 08:50:42;;;;;;;10.30;7.45;;;;;;;9.41;85.96;98343.67;2089824;84;21008;-74
2021/11/04 08:53:44;;;;;;;14.10;6.33;;;;;;;9.43;85.96;98346.42;2098262;82;21503;-75
2021/11/04 08:56:46;;;;;;;15.90;8.20;;;;;;;9.47;86.08;98343.38;2129054;82;21091;-75
2021/11/04 08:59:48;;;;;;;12.40;6.35;;;;;;;9.50;86.10;98327.08;2125625;82;21052;-75
2021/11/04 09:02:50;;;;;;;9.33;6.87;;;;;;;9.54;86.35;98334.91;2128428;82;21484;-76
2021/11/04 09:05:51;;;;;;;12.30;7.22;;;;;;;9.60;86.38;98321.69;2128576;82;20985;-76
2021/11/04 09:08:53;;;;;;;11.73;7.12;;;;;;;9.68;86.44;98314.54;2127160;82;21016;-75
2021/11/04 09:11:55;;;;;;;12.00;7.75;;;;;;;9.77;86.43;98314.14;2123902;82;20993;-76
2021/11/04 09:14:56;;;;;;;11.43;6.70;;;;;;;9.82;86.47;98304.23;2124117;82;21012;-77
2021/11/04 09:17:59;;;;;;;13.15;7.67;;;;;;;9.88;86.53;98308.22;2127064;82;21487;-76
2021/11/04 09:21:01;;;;;;;13.75;7.80;;;;;;;9.91;86.53;98298.20;2127663;82;21567;-76
2021/11/04 09:24:04;;;;;;;10.72;6.45;;;;;;;9.94;86.47;98280.09;2122807;82;21499;-76
2021/11/04 09:27:06;;;;;;;12.73;7.10;;;;;;;9.96;86.54;98285.97;2129428;82;20990;-75
2021/11/04 09:30:09;;;;;;;10.85;6.95;;;;;;;9.98;86.54;98302.48;2128331;82;20953;-74
2021/11/04 09:33:11;;;;;;;10.10;6.55;;;;;;;10.00;86.51;98304.94;2124085;82;20978;-75
2021/11/04 09:36:13;;;;;;;8.83;6.30;;;;;;;10.02;86.30;98301.55;2126818;82;21025;-75
2021/11/04 09:39:14;;;;;;;12.37;6.28;;;;;;;10.04;86.19;98281.77;2122665;82;21598;-74
2021/11/04 09:42:18;;;;;;;10.60;6.65;;;;;;;10.07;86.35;98285.84;2124340;82;21001;-75
2021/11/04 09:45:20;;;;;;;10.38;6.58;;;;;;;10.12;86.21;98279.42;2126820;82;21047;-78
2021/11/04 09:48:22;;;;;;;10.72;6.47;;;;;;;10.20;86.13;98265.13;2125951;82;21048;-76
2021/11/04 09:51:23;;;;;;;14.90;7.00;;;;;;;10.27;86.08;98268.06;2124827;82;20989;-77
2021/11/04 09:54:25;;;;;;;11.68;6.10;;;;;;;10.38;85.95;98276.41;2126252;82;21043;-74
2021/11/04 09:57:28;;;;;;;10.72;6.42;;;;;;;10.46;85.85;98272.19;2130864;82;21044;-76
2021/11/04 10:00:39;;;;;;;9.50;5.72;;;;;;;10.54;85.66;98273.28;2127744;82;20969;-76
2021/11/04 10:03:41;;;;;;;10.40;5.78;;;;;;;10.62;85.38;98258.97;2129344;82;20981;-75
2021/11/04 10:06:43;;;;;;;10.55;6.20;;;;;;;10.75;85.27;98258.35;2126792;82;21005;-76
2021/11/04 10:10:01;;;;;;;10.50;6.47;;;;;;;10.87;84.94;98259.84;2126031;82;21044;-77
2021/11/04 10:13:06;;;;;;;10.45;6.28;;;;;;;11.00;84.38;98258.92;2126669;82;21123;-76
2021/11/04 10:16:10;;;;;;;7.53;5.75;;;;;;;11.12;84.29;98255.06;2122665;82;21024;-75
2021/11/04 10:19:15;;;;;;;11.15;6.10;;;;;;;11.19;83.71;98256.64;2125652;82;20973;-74
2021/11/04 10:22:27;;;;;;;11.63;6.72;;;;;;;11.27;83.48;98251.59;2126195;82;20993;-76
2021/11/04 10:25:30;;;;;;;13.60;6.75;;;;;;;11.46;83.07;98247.15;2125946;82;20996;-74
2021/11/04 10:28:32;;;;;;;10.75;6.33;;;;;;;11.46;83.07;98247.15;2124903;82;21036;-76
2021/11/04 10:31:51;;;;;;;11.00;6.00;;;;;;;11.49;82.79;98222.81;2126530;82;20985;-76
2021/11/04 10:34:58;;;;;;;13.38;6.55;;;;;;;11.49;82.79;98222.81;2126229;82;21001;-76
2021/11/04 10:38:01;;;;;;;11.25;6.03;;;;;;;11.73;82.75;98239.72;2124332;81;21473;-75
2021/11/04 10:41:09;;;;;;;10.80;6.17;;;;;;;11.86;82.46;98236.97;2123731;82;20992;-74
2021/11/04 10:44:21;;;;;;;10.15;6.80;;;;;;;12.16;82.68;98226.10;2125984;82;21008;-76
2021/11/04 10:47:22;;;;;;;10.40;7.00;;;;;;;12.52;82.05;98208.75;2124484;82;21022;-77
2021/11/04 10:50:42;;;;;;;9.80;6.12;;;;;;;12.75;81.36;98219.19;2130714;82;21578;-75
2021/11/04 10:53:44;;;;;;;12.45;6.65;;;;;;;13.09;81.61;98235.47;2122765;82;21562;-76
2021/11/04 10:56:50;;;;;;;9.78;6.67;;;;;;;13.28;78.94;98234.38;2102514;83;21101;-77
2021/11/04 10:59:51;;;;;;;11.03;6.75;;;;;;;13.30;78.12;98246.15;2099377;83;21084;-73
2021/11/04 11:03:12;;;;;;;15.93;7.47;;;;;;;13.21;78.49;98236.33;2101136;83;20993;-76
2021/11/04 11:06:13;;;;;;;10.45;6.03;;;;;;;13.11;78.39;98240.86;2099838;83;21591;-76
2021/11/04 11:09:20;;;;;;;8.45;5.78;;;;;;;13.08;78.43;98232.53;2096920;83;21009;-75
2021/11/04 11:12:22;;;;;;;9.65;5.90;;;;;;;13.12;78.92;98223.87;2098267;83;21049;-75
2021/11/04 11:15:25;;;;;;;10.08;6.58;;;;;;;13.22;78.40;98224.63;2098774;83;21108;-74
2021/11/04 11:18:29;;;;;;;12.85;7.05;;;;;;;13.45;78.60;98218.00;2102180;83;21538;-76
2021/11/04 11:21:33;;;;;;;10.78;6.47;;;;;;;13.62;77.67;98212.78;2095317;83;21014;-76
2021/11/04 11:24:43;;;;;;;11.75;6.10;;;;;;;13.66;77.92;98218.48;2099996;83;21453;-75
2021/11/04 11:27:48;;;;;;;11.45;6.20;;;;;;;13.67;77.17;98218.23;2100673;83;21032;-76
2021/11/04 11:31:17;;;;;;;9.05;5.50;;;;;;;13.64;76.92;98209.37;2074159;84;21794;-75
2021/11/04 11:34:26;;;;;;;9.53;5.80;;;;;;;13.60;76.71;98210.06;2094497;83;22231;-76
2021/11/04 11:37:27;;;;;;;10.23;6.47;;;;;;;13.53;76.94;98204.05;2100028;83;21604;-74
2021/11/04 11:40:31;;;;;;;10.30;5.80;;;;;;;13.50;77.07;98213.84;2100928;83;20977;-76
2021/11/04 11:44:05;;;;;;;12.60;5.85;;;;;;;13.52;77.43;98224.56;2097820;83;21045;-76
2021/11/04 11:47:09;;;;;;;14.33;6.28;;;;;;;13.59;77.77;98226.57;2098113;83;21056;-75
2021/11/04 11:50:30;;;;;;;14.40;6.75;;;;;;;13.63;77.94;98228.27;2099270;83;20990;-77
2021/11/04 11:53:37;;;;;;;10.90;6.67;;;;;;;13.65;78.39;98218.17;2100147;83;21112;-75
2021/11/04 11:56:38;;;;;;;7.58;5.17;;;;;;;13.63;78.39;98215.75;2096369;83;21102;-78
2021/11/04 11:59:54;;;;;;;10.08;5.92;;;;;;;13.65;78.27;98202.18;2101707;83;21501;-77
2021/11/04 12:02:57;;;;;;;14.63;5.15;;;;;;;13.71;78.26;98204.44;2097185;83;21536;-75
2021/11/04 12:06:16;;;;;;;8.48;5.55;;;;;;;13.73;78.20;98206.35;2096281;83;21901;-75
2021/11/04 12:09:44;;;;;;;7.58;5.85;;;;;;;13.71;78.20;98207.91;2101518;83;21084;-77
2021/11/04 12:12:47;;;;;;;10.98;6.25;;;;;;;13.69;78.42;98216.67;2098320;83;21493;-75
2021/11/04 12:16:22;;;;;;;9.08;5.50;;;;;;;13.68;78.64;98215.88;2099508;83;21029;-76
2021/11/04 12:19:41;;;;;;;9.45;5.65;;;;;;;13.71;78.76;98224.42;2097392;83;21037;-77
2021/11/04 12:22:43;;;;;;;6.87;4.42;;;;;;;13.68;78.61;98239.86;2097704;83;21559;-74
2021/11/04 12:25:46;;;;;;;5.47;3.05;;;;;;;13.61;77.07;98291.11;2100781;83;21491;-74
2021/11/04 12:28:50;;;;;;;4.78;2.25;;;;;;;13.32;73.70;98296.82;2100371;83;20951;-75
2021/11/04 12:31:51;;;;;;;7.03;3.05;;;;;;;12.99;71.56;98298.08;2100327;83;21159;-74
2021/11/04 12:35:01;;;;;;;3.22;2.05;;;;;;;12.76;72.82;98311.31;2102027;83;21009;-75
2021/11/04 12:38:03;;;;;;;2.67;2.02;;;;;;;12.56;71.93;98315.03;2101604;83;21088;-75
2021/11/04 12:41:17;;;;;;;5.05;2.10;;;;;;;12.52;72.07;98320.48;2102350;83;21152;-73
2021/11/04 12:44:27;;;;;;;2.58;1.40;;;;;;;12.49;70.18;98318.80;2098005;83;20982;-74
2021/11/04 12:47:29;;;;;;;3.80;2.10;;;;;;;12.47;68.71;98318.20;2101878;83;20997;-77
2021/11/04 12:50:33;;;;;;;4.97;1.47;;;;;;;12.36;68.61;98336.23;2096864;83;21006;-75
2021/11/04 12:53:56;;;;;;;1.87;1.27;;;;;;;12.27;69.02;98343.16;2097536;83;21008;-77
2021/11/04 12:57:04;;;;;;;3.10;1.80;;;;;;;12.22;67.68;98372.78;2111426;82;21465;-76
2021/11/04 13:00:06;;;;;;;2.72;1.02;;;;;;;12.10;66.24;98384.13;2120130;82;21001;-75
2021/11/04 13:03:08;;;;;;;1.47;1.35;;;;;;;11.97;66.13;98404.73;2108422;82;21008;-76
2021/11/04 13:06:10;;;;;;;1.40;1.30;;;;;;;11.75;65.58;98404.25;2115478;83;21045;-76
2021/11/04 13:09:11;;;;;;;1.45;1.20;;;;;;;11.58;66.16;98437.97;2110643;83;21049;-76
2021/11/04 13:12:21;;;;;;;2.65;1.20;;;;;;;11.37;65.82;98437.77;2117412;82;21023;-75
2021/11/04 13:15:26;;;;;;;2.05;1.15;;;;;;;11.18;65.27;98444.83;2113211;82;21037;-75
2021/11/04 13:18:28;;;;;;;1.57;1.20;;;;;;;11.06;66.43;98447.83;2109656;83;21009;-75
2021/11/04 13:21:33;;;;;;;1.80;1.10;;;;;;;10.98;66.22;98436.12;2106127;83;21542;-75
2021/11/04 13:24:32;;;;;;;1.20;1.00;;;;;;;10.86;65.14;98440.45;2109499;82;21678;-76
2021/11/04 13:27:36;;;;;;;1.40;1.30;;;;;;;10.66;65.07;98422.77;2115020;82;21023;-75
2021/11/04 13:30:56;;;;;;;2.52;1.27;;;;;;;10.73;65.54;98462.55;2112288;83;21049;-75
2021/11/04 13:34:11;;;;;;;1.33;1.23;;;;;;;10.64;65.64;98455.81;2112719;82;21582;-76
2021/11/04 13:37:22;;;;;;;4.83;1.37;;;;;;;10.57;65.23;98476.25;2110028;83;20986;-77
2021/11/04 13:40:56;;;;;;;4.12;1.65;;;;;;;10.53;65.36;98497.88;2109515;83;21043;-77
2021/11/04 13:44:00;;;;;;;2.08;1.72;;;;;;;10.49;64.58;98531.12;2116971;83;20995;-76
2021/11/04 13:47:03;;;;;;;1.00;0.90;;;;;;;10.45;65.49;98558.27;2109864;82;21104;-77
2021/11/04 13:50:07;;;;;;;3.02;0.88;;;;;;;10.42;64.95;98567.44;2115879;82;20977;-76
2021/11/04 13:53:18;;;;;;;6.08;1.80;;;;;;;10.26;64.47;98546.08;2110682;82;21034;-78
2021/11/04 13:56:24;;;;;;;5.55;2.12;;;;;;;10.14;64.13;98534.97;2118375;83;20974;-77
2021/11/04 13:59:33;;;;;;;4.03;1.40;;;;;;;10.10;64.08;98551.77;2126497;82;20949;-77
2021/11/04 14:02:43;;;;;;;2.60;1.05;;;;;;;10.09;64.56;98580.62;2121546;82;21012;-76
2021/11/04 14:05:58;;;;;;;1.10;1.00;;;;;;;10.03;64.75;98601.30;2127328;82;21504;-76
2021/11/04 14:09:02;;;;;;;4.97;1.20;;;;;;;9.98;65.03;98601.89;2123391;83;21049;-76
2021/11/04 14:12:07;;;;;;;1.10;0.78;;;;;;;9.93;64.44;98609.61;2120570;82;21064;-78
2021/11/04 14:15:21;;;;;;;2.90;1.55;;;;;;;9.86;64.65;98604.30;2118792;82;21000;-75
2021/11/04 14:18:24;;;;;;;1.95;1.12;;;;;;;9.77;64.85;98613.45;2124859;82;20973;-77
2021/11/04 14:21:27;;;;;;;4.03;1.50;;;;;;;9.71;64.84;98600.16;2121364;83;21040;-75
2021/11/04 14:24:29;;;;;;;1.37;1.20;;;;;;;9.68;65.36;98607.99;2123016;82;20997;-78
2021/11/04 14:27:31;;;;;;;1.65;1.42;;;;;;;9.65;65.38;98613.17;2118506;82;21025;-76